[source: ADDS]
METAR
EDVE 242050Z 26007KT 6000 OVC006 M00/M02 Q1022

TAF AMD EDVE 242001Z 2420/2421 26007KT 8000 OVC008 PROB30 TEMPO 2420/2421 2500 -FZDZ BKN004 EDDV 250120Z 24003KT 6000 BKN014 00/M01 Q1021

TAF EDDV 242300Z 2500/2524 22007KT 7000 SCT007 BKN013 TEMPO 2500/2509 3500 BR BKN007 PROB30 TEMPO 2502/2507 BKN004 BECMG 2507/2510 SCT010 BKN015 TEMPO 2510/2524 BKN012 PROB40 TEMPO 2516/2524 4000 BR BKN007 ETHS 250020Z 25007KT 1000 -DZ BR OVC001 M00/M01 Q1021 RED

ETHC 250020Z 22005KT 1200 BR OVC002 00/M01 Q1021 AMB

TAF EDVK 242000Z 2421/2503 VRB03KT 6000 OVC009 TEMPO 2421/2503 3000 BR BKN004 PROB30 TEMPO 2500/2503 0900 FZFG BKN001
TAF
TAF AMD EDVE 242001Z 2420/2421 26007KT 8000 OVC008 PROB30 TEMPO 2420/2421 2500 -FZDZ BKN004

TAF EDDV 242300Z 2500/2524 22007KT 7000 SCT007 BKN013 TEMPO 2500/2509 3500 BR BKN007 PROB30 TEMPO 2502/2507 BKN004 BECMG 2507/2510 SCT010 BKN015 TEMPO 2510/2524 BKN012 PROB40 TEMPO 2516/2524 4000 BR BKN007

TAF EDVK 242000Z 2421/2503 VRB03KT 6000 OVC009 TEMPO 2421/2503 3000 BR BKN004 PROB30 TEMPO 2500/2503 0900 FZFG BKN001

SR / SS: 07:09 / 15:50 UTC (EDVE 2020-01-25)
Jens verstärkt als neuer Fluglehrer ab sofort unser FFG-Fluglehrer-Team. Glückwunsch und viel Erfolg beim Ausbilden! +++ Wir beglückwünschen Sebastian zur bestandenen PPL-Theorie-Prüfung! Weiterhin viel Erfolg bei der Ausbildung! +++ Stefan hat die praktische Prüfung bestanden! Herzlichen Glückwunsch und Always Happy Landings! +++ Ein weiteres Mitglied hat die Prüfung zum Fluglehrer gemeistert. Glückwunsch Nico und viel Erfolg beim Ausbilden! +++ Florian Hansmann ist ab sofort als Fluglehrer für die FFG tätig! Danke für das Engagement und viel Spaß mit deinen zukünftigen Schülern! +++ Willkommen im Verein Michael und viel Erfolg für deine Ausbildung! +++ Herzlich Willkommen bei der FFG Jens! +++ Uwe hat die PPL-Prüfung bestanden! Herzlichen Glückwunsch und Always Happy Landings!! +++ Hallo und herzlich Willkommen Lothar! Wir wünschen viel Spaß und Erfolg für die Ausbildung!

wenig -> mittel -> viel

Professionelle Piloten arbeiten mit Checkliste
Ausdrucken und abarbeiten! Vorbereitete Links helfen bei der Beschaffung der notwendigen Informationen.

Weiterlesen ...

Hier gibt es die AIP mit allen erforderlichen Karten die im Abo der FFG liegen zum Download für unsere Mitglieder.

Letztes NOTAM EDVE
von 11.02.2020 0900Z bis 12.02.2020 1200Z
HEHLINGEN DVOR/DME HLZ 117.30 MHZ/CH120X ON MAINTENANCE. DO NOT USE. DISREGARD ALL SIGNALS.

Letztes NOTAM EDCB
von 01.12.2019 0600Z bis 15.03.2020 1751Z
GRAS RWY 09/27 CLSD.

Letztes NOTAM EDBC
von 23.01.2020 2305Z bis 23.04.2020 2359Z
MET SERVICES (AD WARNINGS, METAR, TAF) NOT AVBL.

Letztes NOTAM EDVM
von 30.11.2019 1100Z bis 29.02.2020 1700Z
GRASS RWY 07/25 CLSD.

Letztes NOTAM EDVI
von 15.12.2019 0000Z bis 29.02.2020 2259Z
AERODROME AVBL PPR. PPR REQ TEL. +49(0)163-5744126 OR +49(0)5271-6999060.

Letztes NOTAM EDDV
von 13.02.2020 0900Z bis 13.02.2020 1200Z
WARBURG DVOR/DME WRB 113.70MHZ CH84X OUT OF SERVICE.

Letztes NOTAM EDVK
von 13.02.2020 0900Z bis 13.02.2020 1200Z
WARBURG DVOR/DME WRB 113.70MHZ CH84X OUT OF SERVICE.

          aerodata150     Radio38